Sterling, Illinois
Current Conditions -  °F | °C
As of 12:55 PM on Friday 24 Oct 2014 (Local Time) from KSQI Reporting Station
Overcast Overcast  
Wind Chill: 54°   Ceiling: 400
Heat Index: 54°   Visibility: 4mi
Dew Point: 50°   Wind: 6mph
Humidity: 88%   Direction: 170°S
Pressure: 30.04"   Gusts: NA
Location:  41.79°N, 89.7°W
Report Text: KSQI 241755Z AUTO 17005KT 4SM OVC004 12/10 A3004 RMK AO1 10120 20060 57010
Loading
Personal Weather Stations






























Interactive Weather Map
Tropical Storm Tracking
New forecast layout! Learn more

10-Day Weather Forecast

Advertisements
Track Severe Weather on mobile